AAL1117 KMIA-MZBZ
Flight info
| Callsign | AAL1117 |
|---|---|
| Flight time | N/A |
| Altitude | 34000 |
| Route | MAYNR3 MAXIM UG765 IMOLO CZM UB764 BUKKY BUKK1A |
| Aircraft | B738/M-VGDW/C |
Departure
| Time | N/A |
|---|---|
| Airport | Miami International Airport (KMIA) |
Arrival
| Time | 2026-04-28 04:03 |
|---|---|
| Airport | Philip S. W. Goldson International Airport (MZBZ) |
| Time | Latitude | Longitude | Altitude | Speed | Heading |
|---|---|---|---|---|---|
| 2026-04-28 03:18 | 20.99328 | -86.33653 | 35917 ft | 417 kts | 229° |
| 2026-04-28 03:18 | 20.97589 | -86.35726 | 36034 ft | 415 kts | 229° |
| 2026-04-28 03:19 | 20.93691 | -86.40369 | 36090 ft | 422 kts | 229° |
| 2026-04-28 03:19 | 20.89823 | -86.44974 | 36041 ft | 420 kts | 229° |
| 2026-04-28 03:20 | 20.85872 | -86.49672 | 36003 ft | 418 kts | 229° |
| 2026-04-28 03:20 | 20.81979 | -86.54299 | 35977 ft | 418 kts | 229° |
| 2026-04-28 03:21 | 20.78061 | -86.58951 | 35966 ft | 419 kts | 229° |
| 2026-04-28 03:21 | 20.74150 | -86.63591 | 35966 ft | 419 kts | 229° |
| 2026-04-28 03:22 | 20.70252 | -86.68211 | 35966 ft | 419 kts | 228° |
| 2026-04-28 03:22 | 20.66354 | -86.72826 | 35966 ft | 419 kts | 228° |
| 2026-04-28 03:23 | 20.62441 | -86.77456 | 35966 ft | 419 kts | 228° |
| 2026-04-28 03:23 | 20.58532 | -86.82078 | 35966 ft | 419 kts | 228° |
| 2026-04-28 03:24 | 20.54382 | -86.86451 | 35966 ft | 420 kts | 221° |
| 2026-04-28 03:24 | 20.49789 | -86.90379 | 35965 ft | 421 kts | 217° |
| 2026-04-28 03:25 | 20.44834 | -86.93738 | 35966 ft | 423 kts | 210° |
| 2026-04-28 03:25 | 20.39577 | -86.96507 | 35966 ft | 424 kts | 206° |
| 2026-04-28 03:26 | 20.34207 | -86.99129 | 35966 ft | 425 kts | 206° |
| 2026-04-28 03:26 | 20.28800 | -87.01746 | 35966 ft | 425 kts | 206° |
| 2026-04-28 03:27 | 20.23411 | -87.04345 | 35966 ft | 426 kts | 205° |
| 2026-04-28 03:27 | 20.18020 | -87.06938 | 35966 ft | 427 kts | 205° |
| 2026-04-28 03:28 | 20.12595 | -87.09544 | 35966 ft | 427 kts | 205° |
| 2026-04-28 03:28 | 20.07175 | -87.12139 | 35966 ft | 427 kts | 205° |
| 2026-04-28 03:29 | 20.01754 | -87.14734 | 35966 ft | 428 kts | 205° |
| 2026-04-28 03:29 | 19.96314 | -87.17338 | 35966 ft | 428 kts | 205° |
| 2026-04-28 03:30 | 19.90864 | -87.19946 | 35966 ft | 428 kts | 205° |
| 2026-04-28 03:30 | 19.85438 | -87.22540 | 35966 ft | 428 kts | 205° |
| 2026-04-28 03:31 | 19.79995 | -87.25140 | 35966 ft | 428 kts | 205° |
| 2026-04-28 03:31 | 19.74570 | -87.27731 | 35966 ft | 428 kts | 205° |
| 2026-04-28 03:32 | 19.69141 | -87.30321 | 35965 ft | 428 kts | 205° |
| 2026-04-28 03:32 | 19.63685 | -87.32922 | 35966 ft | 428 kts | 205° |
| 2026-04-28 03:33 | 19.58268 | -87.35499 | 35966 ft | 428 kts | 205° |
| 2026-04-28 03:33 | 19.52834 | -87.38080 | 35966 ft | 428 kts | 205° |
| 2026-04-28 03:34 | 19.47427 | -87.40648 | 35966 ft | 427 kts | 205° |
| 2026-04-28 03:34 | 19.42011 | -87.43220 | 35966 ft | 427 kts | 205° |
| 2026-04-28 03:35 | 19.36576 | -87.45802 | 35966 ft | 427 kts | 205° |
| 2026-04-28 03:35 | 19.31163 | -87.48370 | 35966 ft | 428 kts | 205° |
| 2026-04-28 03:36 | 19.25735 | -87.50944 | 35966 ft | 428 kts | 205° |
| 2026-04-28 03:36 | 19.20324 | -87.53509 | 35965 ft | 426 kts | 205° |
| 2026-04-28 03:37 | 19.14923 | -87.56066 | 35966 ft | 425 kts | 205° |
| 2026-04-28 03:37 | 19.09524 | -87.58616 | 35966 ft | 426 kts | 205° |
| 2026-04-28 03:38 | 19.04120 | -87.61165 | 35937 ft | 424 kts | 205° |
| 2026-04-28 03:38 | 19.01430 | -87.62433 | 35480 ft | 420 kts | 205° |
| 2026-04-28 03:38 | 18.98741 | -87.63702 | 34732 ft | 423 kts | 205° |
| 2026-04-28 03:39 | 18.96061 | -87.64967 | 34056 ft | 424 kts | 205° |
| 2026-04-28 03:39 | 18.93365 | -87.66238 | 33377 ft | 425 kts | 205° |
| 2026-04-28 03:39 | 18.90661 | -87.67512 | 32686 ft | 425 kts | 205° |
| 2026-04-28 03:39 | 18.87936 | -87.68797 | 31979 ft | 426 kts | 205° |
| 2026-04-28 03:40 | 18.85252 | -87.70062 | 31450 ft | 422 kts | 205° |
| 2026-04-28 03:40 | 18.82605 | -87.71309 | 30970 ft | 417 kts | 205° |
| 2026-04-28 03:40 | 18.79971 | -87.72549 | 30452 ft | 414 kts | 205° |
| 2026-04-28 03:40 | 18.77353 | -87.73782 | 29932 ft | 411 kts | 205° |
| 2026-04-28 03:41 | 18.74759 | -87.75003 | 29416 ft | 407 kts | 205° |
| 2026-04-28 03:41 | 18.72195 | -87.76209 | 28904 ft | 404 kts | 204° |
| 2026-04-28 03:41 | 18.69606 | -87.77427 | 28384 ft | 400 kts | 204° |
| 2026-04-28 03:41 | 18.67076 | -87.78617 | 27876 ft | 397 kts | 204° |
| 2026-04-28 03:42 | 18.64548 | -87.79805 | 27365 ft | 394 kts | 204° |
| 2026-04-28 03:42 | 18.62059 | -87.80975 | 26864 ft | 391 kts | 204° |
| 2026-04-28 03:42 | 18.59597 | -87.82131 | 26363 ft | 388 kts | 204° |
| 2026-04-28 03:42 | 18.57143 | -87.83284 | 25865 ft | 385 kts | 204° |
| 2026-04-28 03:43 | 18.54711 | -87.84425 | 25369 ft | 382 kts | 204° |
| 2026-04-28 03:43 | 18.52264 | -87.85574 | 24870 ft | 379 kts | 204° |
| 2026-04-28 03:43 | 18.49867 | -87.86698 | 24379 ft | 376 kts | 204° |
| 2026-04-28 03:43 | 18.47494 | -87.87811 | 23892 ft | 373 kts | 204° |
| 2026-04-28 03:44 | 18.45126 | -87.88921 | 23403 ft | 370 kts | 204° |
| 2026-04-28 03:44 | 18.42760 | -87.90031 | 22917 ft | 368 kts | 204° |
| 2026-04-28 03:44 | 18.40431 | -87.91122 | 22435 ft | 365 kts | 204° |
| 2026-04-28 03:44 | 18.38101 | -87.92213 | 21953 ft | 362 kts | 204° |
| 2026-04-28 03:45 | 18.35813 | -87.93284 | 21480 ft | 360 kts | 204° |
| 2026-04-28 03:45 | 18.33534 | -87.94351 | 21005 ft | 357 kts | 204° |
| 2026-04-28 03:45 | 18.31276 | -87.95404 | 20535 ft | 355 kts | 204° |
| 2026-04-28 03:45 | 18.29017 | -87.96458 | 20063 ft | 352 kts | 204° |
| 2026-04-28 03:46 | 18.26778 | -87.97502 | 19594 ft | 350 kts | 204° |
| 2026-04-28 03:46 | 18.24571 | -87.98533 | 19128 ft | 348 kts | 203° |
| 2026-04-28 03:46 | 18.22365 | -87.99563 | 18659 ft | 345 kts | 203° |
| 2026-04-28 03:46 | 18.20184 | -88.00581 | 18198 ft | 343 kts | 203° |
| 2026-04-28 03:47 | 18.18034 | -88.01593 | 17744 ft | 341 kts | 204° |
| 2026-04-28 03:47 | 18.15899 | -88.02609 | 17292 ft | 339 kts | 204° |
| 2026-04-28 03:47 | 18.13829 | -88.03603 | 16853 ft | 337 kts | 204° |
| 2026-04-28 03:47 | 18.11707 | -88.04623 | 16431 ft | 334 kts | 204° |
| 2026-04-28 03:48 | 18.09606 | -88.05632 | 16004 ft | 331 kts | 204° |
| 2026-04-28 03:48 | 18.07505 | -88.06638 | 15555 ft | 330 kts | 204° |
| 2026-04-28 03:48 | 18.05418 | -88.07633 | 15109 ft | 328 kts | 203° |
| 2026-04-28 03:48 | 18.03356 | -88.08609 | 14668 ft | 326 kts | 203° |
| 2026-04-28 03:49 | 18.01264 | -88.09591 | 14216 ft | 325 kts | 203° |
| 2026-04-28 03:49 | 17.99222 | -88.10542 | 13776 ft | 323 kts | 202° |
| 2026-04-28 03:49 | 17.97163 | -88.11495 | 13330 ft | 322 kts | 202° |
| 2026-04-28 03:49 | 17.95116 | -88.12438 | 12859 ft | 323 kts | 202° |
| 2026-04-28 03:50 | 17.93026 | -88.13396 | 12220 ft | 324 kts | 202° |
| 2026-04-28 03:50 | 17.90986 | -88.14328 | 11585 ft | 317 kts | 202° |
| 2026-04-28 03:50 | 17.88989 | -88.15235 | 10961 ft | 311 kts | 202° |
| 2026-04-28 03:50 | 17.87035 | -88.16118 | 10338 ft | 306 kts | 202° |
| 2026-04-28 03:51 | 17.85087 | -88.17000 | 9709 ft | 302 kts | 202° |
| 2026-04-28 03:51 | 17.83185 | -88.17864 | 9085 ft | 298 kts | 202° |
| 2026-04-28 03:51 | 17.81303 | -88.18725 | 8545 ft | 292 kts | 202° |
| 2026-04-28 03:51 | 17.79448 | -88.19578 | 8038 ft | 286 kts | 202° |
| 2026-04-28 03:52 | 17.77664 | -88.20403 | 7542 ft | 281 kts | 202° |
| 2026-04-28 03:52 | 17.75887 | -88.21227 | 7038 ft | 277 kts | 203° |
| 2026-04-28 03:52 | 17.74142 | -88.22052 | 6535 ft | 273 kts | 206° |
| 2026-04-28 03:52 | 17.72533 | -88.23099 | 6032 ft | 271 kts | 217° |
| 2026-04-28 03:53 | 17.71160 | -88.24431 | 5532 ft | 269 kts | 229° |
| 2026-04-28 03:53 | 17.70065 | -88.26017 | 5029 ft | 266 kts | 239° |
| 2026-04-28 03:53 | 17.69211 | -88.27714 | 4534 ft | 264 kts | 244° |
| 2026-04-28 03:53 | 17.68428 | -88.29469 | 4029 ft | 262 kts | 245° |
| 2026-04-28 03:54 | 17.67669 | -88.31194 | 3528 ft | 260 kts | 245° |
| 2026-04-28 03:54 | 17.66904 | -88.32914 | 3048 ft | 257 kts | 245° |
| 2026-04-28 03:54 | 17.66167 | -88.34559 | 2947 ft | 239 kts | 245° |
| 2026-04-28 03:54 | 17.65487 | -88.36072 | 2952 ft | 220 kts | 245° |
| 2026-04-28 03:55 | 17.64843 | -88.37503 | 2966 ft | 217 kts | 245° |
| 2026-04-28 03:55 | 17.64192 | -88.38948 | 2957 ft | 216 kts | 245° |
| 2026-04-28 03:55 | 17.63555 | -88.40362 | 2958 ft | 215 kts | 245° |
| 2026-04-28 03:55 | 17.62910 | -88.41793 | 2958 ft | 215 kts | 245° |
| 2026-04-28 03:56 | 17.62270 | -88.43213 | 2958 ft | 215 kts | 245° |
| 2026-04-28 03:56 | 17.61628 | -88.44637 | 2958 ft | 215 kts | 245° |
| 2026-04-28 03:56 | 17.60986 | -88.46062 | 2958 ft | 215 kts | 245° |
| 2026-04-28 03:56 | 17.60351 | -88.47470 | 2958 ft | 215 kts | 245° |
| 2026-04-28 03:57 | 17.59704 | -88.48904 | 2957 ft | 215 kts | 245° |
| 2026-04-28 03:57 | 17.59060 | -88.50330 | 2958 ft | 215 kts | 245° |
| 2026-04-28 03:57 | 17.58312 | -88.51688 | 2952 ft | 215 kts | 231° |
| 2026-04-28 03:57 | 17.57205 | -88.52755 | 2958 ft | 215 kts | 212° |
| 2026-04-28 03:58 | 17.55824 | -88.53373 | 2955 ft | 221 kts | 192° |
| 2026-04-28 03:58 | 17.54271 | -88.53455 | 2970 ft | 227 kts | 172° |
| 2026-04-28 03:58 | 17.52745 | -88.53065 | 2742 ft | 224 kts | 157° |
| 2026-04-28 03:58 | 17.51473 | -88.52241 | 2462 ft | 205 kts | 137° |
| 2026-04-28 03:59 | 17.50618 | -88.51136 | 2468 ft | 191 kts | 119° |
| 2026-04-28 03:59 | 17.50127 | -88.49826 | 2485 ft | 192 kts | 102° |
| 2026-04-28 03:59 | 17.50050 | -88.48447 | 2446 ft | 189 kts | 83° |
| 2026-04-28 03:59 | 17.50316 | -88.47101 | 2455 ft | 189 kts | 76° |
| 2026-04-28 04:00 | 17.50636 | -88.45768 | 2436 ft | 182 kts | 76° |
| 2026-04-28 04:00 | 17.50925 | -88.44482 | 2442 ft | 179 kts | 77° |
| 2026-04-28 04:00 | 17.51204 | -88.43195 | 2224 ft | 180 kts | 77° |
| 2026-04-28 04:00 | 17.51469 | -88.41955 | 1959 ft | 170 kts | 77° |
| 2026-04-28 04:01 | 17.51725 | -88.40762 | 1725 ft | 166 kts | 77° |
| 2026-04-28 04:01 | 17.51991 | -88.39578 | 1512 ft | 166 kts | 74° |
| 2026-04-28 04:01 | 17.52302 | -88.38414 | 1307 ft | 167 kts | 74° |
| 2026-04-28 04:01 | 17.52614 | -88.37251 | 1086 ft | 166 kts | 74° |
| 2026-04-28 04:02 | 17.52926 | -88.36081 | 873 ft | 163 kts | 74° |
| 2026-04-28 04:02 | 17.53169 | -88.34951 | 752 ft | 159 kts | 80° |
| 2026-04-28 04:02 | 17.53329 | -88.33797 | 470 ft | 153 kts | 82° |
| 2026-04-28 04:02 | 17.53513 | -88.32712 | 253 ft | 151 kts | 78° |
| 2026-04-28 04:03 | 17.53730 | -88.31646 | 34 ft | 149 kts | 77° |
| 2026-04-28 04:03 | 17.53940 | -88.30688 | 26 ft | 104 kts | 76° |
| 2026-04-28 04:03 | 17.54048 | -88.30191 | 26 ft | 41 kts | 77° |
| 2026-04-28 04:03 | 17.54082 | -88.30032 | 26 ft | 13 kts | 79° |
| 2026-04-28 04:04 | 17.54101 | -88.29940 | 26 ft | 12 kts | 79° |
| 2026-04-28 04:04 | 17.54092 | -88.29862 | 26 ft | 9 kts | 86° |
| 2026-04-28 04:04 | 17.54126 | -88.29860 | 26 ft | 9 kts | 289° |
| 2026-04-28 04:04 | 17.54100 | -88.29966 | 26 ft | 20 kts | 253° |
| 2026-04-28 04:05 | 17.54064 | -88.30119 | 26 ft | 22 kts | 257° |
| 2026-04-28 04:05 | 17.54025 | -88.30293 | 26 ft | 26 kts | 257° |
| 2026-04-28 04:05 | 17.53981 | -88.30495 | 26 ft | 30 kts | 256° |
| 2026-04-28 04:05 | 17.53939 | -88.30694 | 26 ft | 25 kts | 257° |
| 2026-04-28 04:06 | 17.53904 | -88.30843 | 26 ft | 16 kts | 254° |
| 2026-04-28 04:06 | 17.53863 | -88.30872 | 26 ft | 9 kts | 177° |
| 2026-04-28 04:06 | 17.53795 | -88.30861 | 26 ft | 9 kts | 169° |
| 2026-04-28 04:06 | 17.53751 | -88.30856 | 26 ft | 4 kts | 195° |
| 2026-04-28 04:07 | 17.53719 | -88.30858 | 26 ft | 4 kts | 165° |
| 2026-04-28 04:07 | 17.53686 | -88.30849 | 26 ft | 1 kts | 166° |
| 2026-04-28 04:07 | 17.53681 | -88.30848 | 26 ft | 0 kts | 167° |